sensor_id;sensor_type;location;lat;lon;timestamp;temperature;humidity
6054;DHT22;3055;50.886;14.814;2023-06-24T00:00:11;15.40;99.90
6054;DHT22;3055;50.886;14.814;2023-06-24T00:02:38;15.40;99.90
6054;DHT22;3055;50.886;14.814;2023-06-24T00:05:09;15.30;99.90
6054;DHT22;3055;50.886;14.814;2023-06-24T00:07:36;15.30;99.90
6054;DHT22;3055;50.886;14.814;2023-06-24T00:10:11;15.10;99.90
6054;DHT22;3055;50.886;14.814;2023-06-24T00:12:39;15.10;99.90
6054;DHT22;3055;50.886;14.814;2023-06-24T00:15:07;15.00;99.90
6054;DHT22;3055;50.886;14.814;2023-06-24T00:17:35;15.00;99.90
6054;DHT22;3055;50.886;14.814;2023-06-24T00:20:02;15.10;99.90
6054;DHT22;3055;50.886;14.814;2023-06-24T00:22:33;15.00;99.90
6054;DHT22;3055;50.886;14.814;2023-06-24T00:25:00;15.00;99.90
6054;DHT22;3055;50.886;14.814;2023-06-24T00:27:28;14.90;99.90
6054;DHT22;3055;50.886;14.814;2023-06-24T00:29:55;14.90;99.90
6054;DHT22;3055;50.886;14.814;2023-06-24T00:32:22;14.90;99.90
6054;DHT22;3055;50.886;14.814;2023-06-24T00:34:49;15.10;99.90
6054;DHT22;3055;50.886;14.814;2023-06-24T00:37:16;15.10;99.90
6054;DHT22;3055;50.886;14.814;2023-06-24T00:39:43;15.10;99.90
6054;DHT22;3055;50.886;14.814;2023-06-24T00:42:10;15.10;99.90
6054;DHT22;3055;50.886;14.814;2023-06-24T00:44:39;15.00;99.90
6054;DHT22;3055;50.886;14.814;2023-06-24T00:47:06;15.10;99.90
6054;DHT22;3055;50.886;14.814;2023-06-24T00:49:35;15.10;99.90
6054;DHT22;3055;50.886;14.814;2023-06-24T00:52:03;15.00;99.90
6054;DHT22;3055;50.886;14.814;2023-06-24T00:54:30;15.00;99.90
6054;DHT22;3055;50.886;14.814;2023-06-24T00:56:58;15.00;99.90
6054;DHT22;3055;50.886;14.814;2023-06-24T00:59:27;15.10;99.90
6054;DHT22;3055;50.886;14.814;2023-06-24T01:01:59;15.00;99.90
6054;DHT22;3055;50.886;14.814;2023-06-24T01:04:28;14.90;99.90
6054;DHT22;3055;50.886;14.814;2023-06-24T01:06:55;15.00;99.90
6054;DHT22;3055;50.886;14.814;2023-06-24T01:09:23;15.00;99.90
6054;DHT22;3055;50.886;14.814;2023-06-24T01:11:51;15.00;99.90
6054;DHT22;3055;50.886;14.814;2023-06-24T01:14:18;15.00;99.90
6054;DHT22;3055;50.886;14.814;2023-06-24T01:16:55;15.10;99.90
6054;DHT22;3055;50.886;14.814;2023-06-24T01:19:44;15.10;99.90
6054;DHT22;3055;50.886;14.814;2023-06-24T01:22:24;15.10;99.90
6054;DHT22;3055;50.886;14.814;2023-06-24T01:25:10;15.00;99.90
6054;DHT22;3055;50.886;14.814;2023-06-24T01:27:58;15.00;99.90
6054;DHT22;3055;50.886;14.814;2023-06-24T01:30:45;15.10;99.90
6054;DHT22;3055;50.886;14.814;2023-06-24T01:33:22;15.10;99.90
6054;DHT22;3055;50.886;14.814;2023-06-24T01:35:53;15.10;99.90
6054;DHT22;3055;50.886;14.814;2023-06-24T01:38:24;15.10;99.90
6054;DHT22;3055;50.886;14.814;2023-06-24T01:40:54;15.10;99.90
6054;DHT22;3055;50.886;14.814;2023-06-24T01:43:22;15.00;99.90
6054;DHT22;3055;50.886;14.814;2023-06-24T01:45:51;15.00;99.90
6054;DHT22;3055;50.886;14.814;2023-06-24T01:48:25;14.90;99.90
6054;DHT22;3055;50.886;14.814;2023-06-24T01:50:57;14.80;99.90
6054;DHT22;3055;50.886;14.814;2023-06-24T01:53:26;14.90;99.90
6054;DHT22;3055;50.886;14.814;2023-06-24T01:55:54;14.90;99.90
6054;DHT22;3055;50.886;14.814;2023-06-24T01:58:24;14.90;99.90
6054;DHT22;3055;50.886;14.814;2023-06-24T02:00:52;14.80;99.90
6054;DHT22;3055;50.886;14.814;2023-06-24T02:03:21;14.70;99.90
6054;DHT22;3055;50.886;14.814;2023-06-24T02:05:48;14.70;99.90
6054;DHT22;3055;50.886;14.814;2023-06-24T02:08:17;14.70;99.90
6054;DHT22;3055;50.886;14.814;2023-06-24T02:10:45;14.70;99.90
6054;DHT22;3055;50.886;14.814;2023-06-24T02:13:13;14.80;99.90
6054;DHT22;3055;50.886;14.814;2023-06-24T02:15:41;14.90;99.90
6054;DHT22;3055;50.886;14.814;2023-06-24T02:18:10;14.80;99.90
6054;DHT22;3055;50.886;14.814;2023-06-24T02:20:40;14.90;99.90
6054;DHT22;3055;50.886;14.814;2023-06-24T02:23:09;14.80;99.90
6054;DHT22;3055;50.886;14.814;2023-06-24T02:25:38;14.80;99.90
6054;DHT22;3055;50.886;14.814;2023-06-24T02:28:06;14.80;99.90
6054;DHT22;3055;50.886;14.814;2023-06-24T02:30:34;14.80;99.90
6054;DHT22;3055;50.886;14.814;2023-06-24T02:33:02;14.90;99.90
6054;DHT22;3055;50.886;14.814;2023-06-24T02:35:30;14.90;99.90
6054;DHT22;3055;50.886;14.814;2023-06-24T02:37:58;15.00;99.90
6054;DHT22;3055;50.886;14.814;2023-06-24T02:40:26;15.00;99.90
6054;DHT22;3055;50.886;14.814;2023-06-24T02:42:53;15.00;99.90
6054;DHT22;3055;50.886;14.814;2023-06-24T02:45:21;14.90;99.90
6054;DHT22;3055;50.886;14.814;2023-06-24T02:47:49;14.90;99.90
6054;DHT22;3055;50.886;14.814;2023-06-24T02:50:16;14.90;99.90
6054;DHT22;3055;50.886;14.814;2023-06-24T02:52:45;14.90;99.90
6054;DHT22;3055;50.886;14.814;2023-06-24T02:55:14;15.00;99.90
6054;DHT22;3055;50.886;14.814;2023-06-24T02:57:41;15.00;99.90
6054;DHT22;3055;50.886;14.814;2023-06-24T03:00:10;15.10;99.90
6054;DHT22;3055;50.886;14.814;2023-06-24T03:02:40;15.10;99.90
6054;DHT22;3055;50.886;14.814;2023-06-24T03:05:08;15.20;99.90
6054;DHT22;3055;50.886;14.814;2023-06-24T03:07:36;15.30;99.90
6054;DHT22;3055;50.886;14.814;2023-06-24T03:10:05;15.30;99.90
6054;DHT22;3055;50.886;14.814;2023-06-24T03:12:34;15.30;99.90
6054;DHT22;3055;50.886;14.814;2023-06-24T03:15:01;15.30;99.90
6054;DHT22;3055;50.886;14.814;2023-06-24T03:17:29;15.30;99.90
6054;DHT22;3055;50.886;14.814;2023-06-24T03:19:56;15.30;99.90
6054;DHT22;3055;50.886;14.814;2023-06-24T03:22:24;15.30;99.90
6054;DHT22;3055;50.886;14.814;2023-06-24T03:24:51;15.30;99.90
6054;DHT22;3055;50.886;14.814;2023-06-24T03:27:18;15.30;99.90
6054;DHT22;3055;50.886;14.814;2023-06-24T03:29:47;15.30;99.90
6054;DHT22;3055;50.886;14.814;2023-06-24T03:32:14;15.40;99.90
6054;DHT22;3055;50.886;14.814;2023-06-24T03:34:41;15.20;99.90
6054;DHT22;3055;50.886;14.814;2023-06-24T03:37:08;15.20;99.90
6054;DHT22;3055;50.886;14.814;2023-06-24T03:39:35;15.20;99.90
6054;DHT22;3055;50.886;14.814;2023-06-24T03:42:03;15.30;99.90
6054;DHT22;3055;50.886;14.814;2023-06-24T03:44:30;15.30;99.90
6054;DHT22;3055;50.886;14.814;2023-06-24T03:46:58;15.40;99.90
6054;DHT22;3055;50.886;14.814;2023-06-24T03:49:25;15.50;99.90
6054;DHT22;3055;50.886;14.814;2023-06-24T03:51:52;15.50;99.90
6054;DHT22;3055;50.886;14.814;2023-06-24T03:54:19;15.50;99.90
6054;DHT22;3055;50.886;14.814;2023-06-24T03:56:46;15.50;99.90
6054;DHT22;3055;50.886;14.814;2023-06-24T03:59:13;15.60;99.90
6054;DHT22;3055;50.886;14.814;2023-06-24T04:01:40;15.60;99.90
6054;DHT22;3055;50.886;14.814;2023-06-24T04:04:09;15.50;99.90
6054;DHT22;3055;50.886;14.814;2023-06-24T04:06:36;15.50;99.90
6054;DHT22;3055;50.886;14.814;2023-06-24T04:09:05;15.40;99.90
6054;DHT22;3055;50.886;14.814;2023-06-24T04:11:34;15.50;99.90
6054;DHT22;3055;50.886;14.814;2023-06-24T04:14:01;15.60;99.90
6054;DHT22;3055;50.886;14.814;2023-06-24T04:16:32;15.50;99.90
6054;DHT22;3055;50.886;14.814;2023-06-24T04:18:59;15.50;99.90
6054;DHT22;3055;50.886;14.814;2023-06-24T04:21:27;15.40;99.90
6054;DHT22;3055;50.886;14.814;2023-06-24T04:23:55;15.50;99.90
6054;DHT22;3055;50.886;14.814;2023-06-24T04:26:22;15.60;99.90
6054;DHT22;3055;50.886;14.814;2023-06-24T04:28:49;15.80;99.90
6054;DHT22;3055;50.886;14.814;2023-06-24T04:31:16;16.00;99.90
6054;DHT22;3055;50.886;14.814;2023-06-24T04:33:44;16.10;99.90
6054;DHT22;3055;50.886;14.814;2023-06-24T04:36:11;16.30;99.90
6054;DHT22;3055;50.886;14.814;2023-06-24T04:38:39;16.40;99.90
6054;DHT22;3055;50.886;14.814;2023-06-24T04:41:06;16.50;99.90
6054;DHT22;3055;50.886;14.814;2023-06-24T04:43:34;16.50;99.90
6054;DHT22;3055;50.886;14.814;2023-06-24T04:46:01;16.60;99.90
6054;DHT22;3055;50.886;14.814;2023-06-24T04:48:28;16.50;99.90
6054;DHT22;3055;50.886;14.814;2023-06-24T04:50:55;16.50;99.90
6054;DHT22;3055;50.886;14.814;2023-06-24T04:53:23;16.60;99.90
6054;DHT22;3055;50.886;14.814;2023-06-24T04:55:52;16.60;99.90
6054;DHT22;3055;50.886;14.814;2023-06-24T04:58:19;16.60;99.90
6054;DHT22;3055;50.886;14.814;2023-06-24T05:00:46;16.60;99.90
6054;DHT22;3055;50.886;14.814;2023-06-24T05:03:13;16.70;99.90
6054;DHT22;3055;50.886;14.814;2023-06-24T05:05:40;16.80;99.90
6054;DHT22;3055;50.886;14.814;2023-06-24T05:08:07;16.80;99.90
6054;DHT22;3055;50.886;14.814;2023-06-24T05:10:34;16.70;99.90
6054;DHT22;3055;50.886;14.814;2023-06-24T05:13:02;16.90;99.90
6054;DHT22;3055;50.886;14.814;2023-06-24T05:15:29;16.90;99.90
6054;DHT22;3055;50.886;14.814;2023-06-24T05:17:56;17.10;99.90
6054;DHT22;3055;50.886;14.814;2023-06-24T05:20:23;17.20;99.90
6054;DHT22;3055;50.886;14.814;2023-06-24T05:22:51;17.20;99.90
6054;DHT22;3055;50.886;14.814;2023-06-24T05:25:18;17.30;99.90
6054;DHT22;3055;50.886;14.814;2023-06-24T05:27:45;17.40;99.90
6054;DHT22;3055;50.886;14.814;2023-06-24T05:30:13;17.60;99.90
6054;DHT22;3055;50.886;14.814;2023-06-24T05:32:40;17.80;99.90
6054;DHT22;3055;50.886;14.814;2023-06-24T05:35:08;17.90;99.90
6054;DHT22;3055;50.886;14.814;2023-06-24T05:37:35;18.00;99.90
6054;DHT22;3055;50.886;14.814;2023-06-24T05:40:02;18.10;99.90
6054;DHT22;3055;50.886;14.814;2023-06-24T05:42:30;18.10;99.90
6054;DHT22;3055;50.886;14.814;2023-06-24T05:44:57;18.10;99.90
6054;DHT22;3055;50.886;14.814;2023-06-24T05:47:26;18.20;99.90
6054;DHT22;3055;50.886;14.814;2023-06-24T05:49:53;18.10;99.90
6054;DHT22;3055;50.886;14.814;2023-06-24T05:52:23;18.10;99.90
6054;DHT22;3055;50.886;14.814;2023-06-24T05:54:50;18.20;99.90
6054;DHT22;3055;50.886;14.814;2023-06-24T05:57:17;18.30;99.90
6054;DHT22;3055;50.886;14.814;2023-06-24T05:59:44;18.40;99.90
6054;DHT22;3055;50.886;14.814;2023-06-24T06:02:11;18.50;99.90
6054;DHT22;3055;50.886;14.814;2023-06-24T06:04:40;18.50;99.90
6054;DHT22;3055;50.886;14.814;2023-06-24T06:07:07;18.60;99.90
6054;DHT22;3055;50.886;14.814;2023-06-24T06:09:34;18.70;99.90
6054;DHT22;3055;50.886;14.814;2023-06-24T06:12:01;18.60;99.90
6054;DHT22;3055;50.886;14.814;2023-06-24T06:14:28;18.70;99.90
6054;DHT22;3055;50.886;14.814;2023-06-24T06:16:55;18.50;99.90
6054;DHT22;3055;50.886;14.814;2023-06-24T06:19:22;18.60;99.90
6054;DHT22;3055;50.886;14.814;2023-06-24T06:21:51;18.70;99.90
6054;DHT22;3055;50.886;14.814;2023-06-24T06:24:20;18.80;99.90
6054;DHT22;3055;50.886;14.814;2023-06-24T06:26:50;18.80;99.90
6054;DHT22;3055;50.886;14.814;2023-06-24T06:29:17;18.90;99.90
6054;DHT22;3055;50.886;14.814;2023-06-24T06:31:44;18.90;99.90
6054;DHT22;3055;50.886;14.814;2023-06-24T06:34:11;19.00;99.90
6054;DHT22;3055;50.886;14.814;2023-06-24T06:36:38;19.00;99.90
6054;DHT22;3055;50.886;14.814;2023-06-24T06:39:07;19.10;99.90
6054;DHT22;3055;50.886;14.814;2023-06-24T06:41:34;19.20;99.90
6054;DHT22;3055;50.886;14.814;2023-06-24T06:44:01;19.40;99.90
6054;DHT22;3055;50.886;14.814;2023-06-24T06:46:28;19.70;99.90
6054;DHT22;3055;50.886;14.814;2023-06-24T06:48:55;20.00;99.90
6054;DHT22;3055;50.886;14.814;2023-06-24T06:51:22;20.40;97.90
6054;DHT22;3055;50.886;14.814;2023-06-24T06:53:50;20.80;57.90
6054;DHT22;3055;50.886;14.814;2023-06-24T06:56:19;21.20;1.00
6054;DHT22;3055;50.886;14.814;2023-06-24T06:58:46;21.60;1.00
6054;DHT22;3055;50.886;14.814;2023-06-24T07:01:13;21.50;99.90
6054;DHT22;3055;50.886;14.814;2023-06-24T07:03:40;21.50;1.00
6054;DHT22;3055;50.886;14.814;2023-06-24T07:06:07;21.60;99.90
6054;DHT22;3055;50.886;14.814;2023-06-24T07:08:34;21.90;99.90
6054;DHT22;3055;50.886;14.814;2023-06-24T07:11:01;22.00;93.40
6054;DHT22;3055;50.886;14.814;2023-06-24T07:13:30;22.00;1.00
6054;DHT22;3055;50.886;14.814;2023-06-24T07:15:57;21.80;1.00
6054;DHT22;3055;50.886;14.814;2023-06-24T07:18:24;21.60;1.00
6054;DHT22;3055;50.886;14.814;2023-06-24T07:20:55;21.40;1.00
6054;DHT22;3055;50.886;14.814;2023-06-24T07:23:23;21.30;1.00
6054;DHT22;3055;50.886;14.814;2023-06-24T07:25:50;21.30;1.00
6054;DHT22;3055;50.886;14.814;2023-06-24T07:28:19;21.20;1.00
6054;DHT22;3055;50.886;14.814;2023-06-24T07:30:48;21.20;1.00
6054;DHT22;3055;50.886;14.814;2023-06-24T07:33:15;21.00;1.00
6054;DHT22;3055;50.886;14.814;2023-06-24T07:35:42;20.80;1.00
6054;DHT22;3055;50.886;14.814;2023-06-24T07:38:09;20.90;19.60
6054;DHT22;3055;50.886;14.814;2023-06-24T07:40:36;21.30;99.90
6054;DHT22;3055;50.886;14.814;2023-06-24T07:43:03;21.80;99.90
6054;DHT22;3055;50.886;14.814;2023-06-24T07:45:30;22.20;1.00
6054;DHT22;3055;50.886;14.814;2023-06-24T07:47:59;22.30;1.00
6054;DHT22;3055;50.886;14.814;2023-06-24T07:50:26;22.20;1.00
6054;DHT22;3055;50.886;14.814;2023-06-24T07:52:53;22.10;1.00
6054;DHT22;3055;50.886;14.814;2023-06-24T07:55:20;22.20;1.00
6054;DHT22;3055;50.886;14.814;2023-06-24T07:57:47;22.60;99.90
6054;DHT22;3055;50.886;14.814;2023-06-24T08:00:15;23.00;99.90
6054;DHT22;3055;50.886;14.814;2023-06-24T08:02:42;23.60;99.90
6054;DHT22;3055;50.886;14.814;2023-06-24T08:05:11;24.10;99.90
6054;DHT22;3055;50.886;14.814;2023-06-24T08:07:38;24.30;99.90
6054;DHT22;3055;50.886;14.814;2023-06-24T08:10:06;24.10;99.90
6054;DHT22;3055;50.886;14.814;2023-06-24T08:12:33;23.70;99.90
6054;DHT22;3055;50.886;14.814;2023-06-24T08:15:00;23.40;99.90
6054;DHT22;3055;50.886;14.814;2023-06-24T08:17:27;23.20;99.90
6054;DHT22;3055;50.886;14.814;2023-06-24T08:19:54;22.80;99.90
6054;DHT22;3055;50.886;14.814;2023-06-24T08:22:23;22.60;99.90
6054;DHT22;3055;50.886;14.814;2023-06-24T08:24:50;22.60;99.90
6054;DHT22;3055;50.886;14.814;2023-06-24T08:27:17;22.70;99.90
6054;DHT22;3055;50.886;14.814;2023-06-24T08:29:56;22.90;99.90
6054;DHT22;3055;50.886;14.814;2023-06-24T08:32:23;23.00;99.90
6054;DHT22;3055;50.886;14.814;2023-06-24T08:34:50;23.10;99.90
6054;DHT22;3055;50.886;14.814;2023-06-24T08:37:17;23.20;99.90
6054;DHT22;3055;50.886;14.814;2023-06-24T08:39:46;23.10;99.90
6054;DHT22;3055;50.886;14.814;2023-06-24T08:42:13;23.10;99.90
6054;DHT22;3055;50.886;14.814;2023-06-24T08:44:40;23.20;99.90
6054;DHT22;3055;50.886;14.814;2023-06-24T08:47:07;23.30;99.90
6054;DHT22;3055;50.886;14.814;2023-06-24T08:49:40;23.40;99.90
6054;DHT22;3055;50.886;14.814;2023-06-24T08:52:13;23.20;99.90
6054;DHT22;3055;50.886;14.814;2023-06-24T08:54:43;23.10;99.90
6054;DHT22;3055;50.886;14.814;2023-06-24T08:57:13;23.30;99.90
6054;DHT22;3055;50.886;14.814;2023-06-24T08:59:44;23.40;99.90
6054;DHT22;3055;50.886;14.814;2023-06-24T09:02:12;23.30;99.90
6054;DHT22;3055;50.886;14.814;2023-06-24T09:04:40;23.40;99.90
6054;DHT22;3055;50.886;14.814;2023-06-24T09:07:07;23.70;99.90
6054;DHT22;3055;50.886;14.814;2023-06-24T09:09:42;23.70;99.90
6054;DHT22;3055;50.886;14.814;2023-06-24T09:12:13;23.80;94.00
6054;DHT22;3055;50.886;14.814;2023-06-24T09:14:40;24.00;79.40
6054;DHT22;3055;50.886;14.814;2023-06-24T09:17:08;24.50;77.50
6054;DHT22;3055;50.886;14.814;2023-06-24T09:19:36;24.70;42.20
6054;DHT22;3055;50.886;14.814;2023-06-24T09:22:04;24.80;28.30
6054;DHT22;3055;50.886;14.814;2023-06-24T09:24:32;24.60;14.00
6054;DHT22;3055;50.886;14.814;2023-06-24T09:26:59;24.50;10.40
6054;DHT22;3055;50.886;14.814;2023-06-24T09:29:32;24.60;7.10
6054;DHT22;3055;50.886;14.814;2023-06-24T09:31:59;24.50;1.00
6054;DHT22;3055;50.886;14.814;2023-06-24T09:34:28;24.50;1.60
6054;DHT22;3055;50.886;14.814;2023-06-24T09:36:56;24.80;1.00
6054;DHT22;3055;50.886;14.814;2023-06-24T09:39:25;25.00;1.00
6054;DHT22;3055;50.886;14.814;2023-06-24T09:41:55;24.70;1.00
6054;DHT22;3055;50.886;14.814;2023-06-24T09:44:22;24.60;1.00
6054;DHT22;3055;50.886;14.814;2023-06-24T09:46:51;24.50;1.00
6054;DHT22;3055;50.886;14.814;2023-06-24T09:49:18;24.40;1.00
6054;DHT22;3055;50.886;14.814;2023-06-24T09:51:47;24.20;1.00
6054;DHT22;3055;50.886;14.814;2023-06-24T09:54:15;24.00;1.00
6054;DHT22;3055;50.886;14.814;2023-06-24T09:56:44;24.20;1.00
6054;DHT22;3055;50.886;14.814;2023-06-24T09:59:13;24.60;1.00
6054;DHT22;3055;50.886;14.814;2023-06-24T10:01:42;24.70;1.00
6054;DHT22;3055;50.886;14.814;2023-06-24T10:04:15;25.00;1.00
6054;DHT22;3055;50.886;14.814;2023-06-24T10:06:43;25.50;1.00
6054;DHT22;3055;50.886;14.814;2023-06-24T10:09:10;25.60;1.00
6054;DHT22;3055;50.886;14.814;2023-06-24T10:11:39;25.60;1.00
6054;DHT22;3055;50.886;14.814;2023-06-24T10:14:06;25.20;1.00
6054;DHT22;3055;50.886;14.814;2023-06-24T10:16:33;25.00;1.00
6054;DHT22;3055;50.886;14.814;2023-06-24T10:19:01;24.80;1.00
6054;DHT22;3055;50.886;14.814;2023-06-24T10:24:32;24.90;1.00
6054;DHT22;3055;50.886;14.814;2023-06-24T10:27:04;25.20;1.00
6054;DHT22;3055;50.886;14.814;2023-06-24T10:29:32;25.20;1.00
6054;DHT22;3055;50.886;14.814;2023-06-24T10:32:04;25.20;1.00
6054;DHT22;3055;50.886;14.814;2023-06-24T10:34:38;25.70;1.00
6054;DHT22;3055;50.886;14.814;2023-06-24T10:37:09;26.30;1.00
6054;DHT22;3055;50.886;14.814;2023-06-24T10:42:42;26.20;1.00
6054;DHT22;3055;50.886;14.814;2023-06-24T10:45:16;25.30;1.00
6054;DHT22;3055;50.886;14.814;2023-06-24T10:47:45;24.80;1.00
6054;DHT22;3055;50.886;14.814;2023-06-24T10:50:13;24.60;1.00
6054;DHT22;3055;50.886;14.814;2023-06-24T10:52:42;24.60;1.00
6054;DHT22;3055;50.886;14.814;2023-06-24T10:55:09;24.70;1.00
6054;DHT22;3055;50.886;14.814;2023-06-24T10:57:37;24.90;1.00
6054;DHT22;3055;50.886;14.814;2023-06-24T11:00:06;24.90;1.00
6054;DHT22;3055;50.886;14.814;2023-06-24T11:02:33;24.70;1.00
6054;DHT22;3055;50.886;14.814;2023-06-24T11:05:03;24.40;1.00
6054;DHT22;3055;50.886;14.814;2023-06-24T11:07:31;23.90;1.00
6054;DHT22;3055;50.886;14.814;2023-06-24T11:10:02;23.90;1.00
6054;DHT22;3055;50.886;14.814;2023-06-24T11:12:31;24.20;1.00
6054;DHT22;3055;50.886;14.814;2023-06-24T11:14:59;24.30;1.00
6054;DHT22;3055;50.886;14.814;2023-06-24T11:17:28;24.60;1.00
6054;DHT22;3055;50.886;14.814;2023-06-24T11:19:55;25.00;1.00
6054;DHT22;3055;50.886;14.814;2023-06-24T11:22:23;25.50;1.00
6054;DHT22;3055;50.886;14.814;2023-06-24T11:24:51;25.50;1.00
6054;DHT22;3055;50.886;14.814;2023-06-24T11:27:24;25.20;1.00
6054;DHT22;3055;50.886;14.814;2023-06-24T11:29:53;24.70;1.00
6054;DHT22;3055;50.886;14.814;2023-06-24T11:32:21;24.20;1.00
6054;DHT22;3055;50.886;14.814;2023-06-24T11:34:49;23.90;1.00
6054;DHT22;3055;50.886;14.814;2023-06-24T11:37:17;24.00;1.00
6054;DHT22;3055;50.886;14.814;2023-06-24T11:39:55;24.20;1.00
6054;DHT22;3055;50.886;14.814;2023-06-24T11:42:28;24.40;1.00
6054;DHT22;3055;50.886;14.814;2023-06-24T11:44:59;24.60;1.00
6054;DHT22;3055;50.886;14.814;2023-06-24T11:47:27;24.90;1.00
6054;DHT22;3055;50.886;14.814;2023-06-24T11:49:57;25.20;1.00
6054;DHT22;3055;50.886;14.814;2023-06-24T11:52:41;25.60;1.00
6054;DHT22;3055;50.886;14.814;2023-06-24T11:55:13;25.90;1.00
6054;DHT22;3055;50.886;14.814;2023-06-24T11:57:50;26.30;1.00
6054;DHT22;3055;50.886;14.814;2023-06-24T12:00:20;26.60;1.00
6054;DHT22;3055;50.886;14.814;2023-06-24T12:02:50;26.80;1.00
6054;DHT22;3055;50.886;14.814;2023-06-24T12:05:23;26.40;1.00
6054;DHT22;3055;50.886;14.814;2023-06-24T12:07:54;26.10;1.00
6054;DHT22;3055;50.886;14.814;2023-06-24T12:10:22;25.90;1.00
6054;DHT22;3055;50.886;14.814;2023-06-24T12:12:49;26.00;1.00
6054;DHT22;3055;50.886;14.814;2023-06-24T12:15:17;26.20;1.00
6054;DHT22;3055;50.886;14.814;2023-06-24T12:17:44;26.30;1.00
6054;DHT22;3055;50.886;14.814;2023-06-24T12:20:11;26.20;1.00
6054;DHT22;3055;50.886;14.814;2023-06-24T12:22:41;26.00;1.00
6054;DHT22;3055;50.886;14.814;2023-06-24T12:25:09;26.00;1.00
6054;DHT22;3055;50.886;14.814;2023-06-24T12:27:37;26.20;1.00
6054;DHT22;3055;50.886;14.814;2023-06-24T12:30:07;26.20;1.00
6054;DHT22;3055;50.886;14.814;2023-06-24T12:32:35;26.20;1.00
6054;DHT22;3055;50.886;14.814;2023-06-24T12:35:03;26.10;1.00
6054;DHT22;3055;50.886;14.814;2023-06-24T12:37:31;25.90;1.00
6054;DHT22;3055;50.886;14.814;2023-06-24T12:40:00;26.20;1.00
6054;DHT22;3055;50.886;14.814;2023-06-24T12:42:27;26.50;1.00
6054;DHT22;3055;50.886;14.814;2023-06-24T12:44:55;26.60;1.00
6054;DHT22;3055;50.886;14.814;2023-06-24T12:47:22;26.80;1.00
6054;DHT22;3055;50.886;14.814;2023-06-24T12:49:49;26.70;1.00
6054;DHT22;3055;50.886;14.814;2023-06-24T12:52:16;26.30;1.00
6054;DHT22;3055;50.886;14.814;2023-06-24T12:54:43;26.10;1.00
6054;DHT22;3055;50.886;14.814;2023-06-24T12:57:12;26.20;1.00
6054;DHT22;3055;50.886;14.814;2023-06-24T12:59:39;26.40;1.00
6054;DHT22;3055;50.886;14.814;2023-06-24T13:02:06;26.60;1.00
6054;DHT22;3055;50.886;14.814;2023-06-24T13:04:33;26.80;1.00
6054;DHT22;3055;50.886;14.814;2023-06-24T13:07:00;27.10;1.00
6054;DHT22;3055;50.886;14.814;2023-06-24T13:09:29;27.00;1.00
6054;DHT22;3055;50.886;14.814;2023-06-24T13:11:56;27.00;1.00
6054;DHT22;3055;50.886;14.814;2023-06-24T13:14:24;27.00;1.00
6054;DHT22;3055;50.886;14.814;2023-06-24T13:16:53;27.10;1.00
6054;DHT22;3055;50.886;14.814;2023-06-24T13:19:21;27.20;1.00
6054;DHT22;3055;50.886;14.814;2023-06-24T13:21:48;27.10;1.00
6054;DHT22;3055;50.886;14.814;2023-06-24T13:24:15;26.90;1.00
6054;DHT22;3055;50.886;14.814;2023-06-24T13:26:42;27.00;1.00
6054;DHT22;3055;50.886;14.814;2023-06-24T13:29:09;27.10;1.00
6054;DHT22;3055;50.886;14.814;2023-06-24T13:31:37;27.30;1.00
6054;DHT22;3055;50.886;14.814;2023-06-24T13:34:05;27.30;1.00
6054;DHT22;3055;50.886;14.814;2023-06-24T13:36:33;27.30;1.00
6054;DHT22;3055;50.886;14.814;2023-06-24T13:39:01;27.20;1.00
6054;DHT22;3055;50.886;14.814;2023-06-24T13:41:29;27.10;1.00
6054;DHT22;3055;50.886;14.814;2023-06-24T13:43:58;27.10;1.00
6054;DHT22;3055;50.886;14.814;2023-06-24T13:46:26;27.40;1.00
6054;DHT22;3055;50.886;14.814;2023-06-24T13:48:54;27.50;1.00
6054;DHT22;3055;50.886;14.814;2023-06-24T13:51:22;27.50;1.00
6054;DHT22;3055;50.886;14.814;2023-06-24T13:53:50;27.50;1.00
6054;DHT22;3055;50.886;14.814;2023-06-24T13:56:18;27.80;1.00
6054;DHT22;3055;50.886;14.814;2023-06-24T13:58:46;27.80;1.00
6054;DHT22;3055;50.886;14.814;2023-06-24T14:01:13;28.00;1.00
6054;DHT22;3055;50.886;14.814;2023-06-24T14:03:41;27.90;1.00
6054;DHT22;3055;50.886;14.814;2023-06-24T14:06:10;27.90;1.00
6054;DHT22;3055;50.886;14.814;2023-06-24T14:08:37;28.40;1.00
6054;DHT22;3055;50.886;14.814;2023-06-24T14:11:04;28.50;1.00
6054;DHT22;3055;50.886;14.814;2023-06-24T14:13:31;29.00;1.00
6054;DHT22;3055;50.886;14.814;2023-06-24T14:15:58;29.30;1.00
6054;DHT22;3055;50.886;14.814;2023-06-24T14:18:25;29.20;1.00
6054;DHT22;3055;50.886;14.814;2023-06-24T14:20:52;29.00;1.00
6054;DHT22;3055;50.886;14.814;2023-06-24T14:23:21;28.60;1.00
6054;DHT22;3055;50.886;14.814;2023-06-24T14:25:51;28.70;1.00
6054;DHT22;3055;50.886;14.814;2023-06-24T14:28:19;28.70;1.00
6054;DHT22;3055;50.886;14.814;2023-06-24T14:30:46;28.80;1.00
6054;DHT22;3055;50.886;14.814;2023-06-24T14:33:13;29.00;1.00
6054;DHT22;3055;50.886;14.814;2023-06-24T14:35:41;29.60;1.00
6054;DHT22;3055;50.886;14.814;2023-06-24T14:38:08;30.20;1.00
6054;DHT22;3055;50.886;14.814;2023-06-24T14:40:37;30.70;1.00
6054;DHT22;3055;50.886;14.814;2023-06-24T14:43:04;30.70;1.00
6054;DHT22;3055;50.886;14.814;2023-06-24T14:45:31;30.40;1.00
6054;DHT22;3055;50.886;14.814;2023-06-24T14:47:58;30.60;1.00
6054;DHT22;3055;50.886;14.814;2023-06-24T14:50:25;30.60;1.00
6054;DHT22;3055;50.886;14.814;2023-06-24T14:52:52;30.20;1.00
6054;DHT22;3055;50.886;14.814;2023-06-24T14:55:19;30.20;1.00
6054;DHT22;3055;50.886;14.814;2023-06-24T14:57:48;30.40;1.00
6054;DHT22;3055;50.886;14.814;2023-06-24T15:00:15;30.60;1.00
6054;DHT22;3055;50.886;14.814;2023-06-24T15:02:42;30.90;1.00
6054;DHT22;3055;50.886;14.814;2023-06-24T15:05:09;30.40;1.00
6054;DHT22;3055;50.886;14.814;2023-06-24T15:07:37;30.30;1.00
6054;DHT22;3055;50.886;14.814;2023-06-24T15:10:05;30.80;1.00
6054;DHT22;3055;50.886;14.814;2023-06-24T15:12:32;31.30;1.00
6054;DHT22;3055;50.886;14.814;2023-06-24T15:15:01;31.20;1.00
6054;DHT22;3055;50.886;14.814;2023-06-24T15:17:28;31.10;1.00
6054;DHT22;3055;50.886;14.814;2023-06-24T15:19:56;30.90;1.00
6054;DHT22;3055;50.886;14.814;2023-06-24T15:22:23;31.10;1.00
6054;DHT22;3055;50.886;14.814;2023-06-24T15:24:50;31.00;1.00
6054;DHT22;3055;50.886;14.814;2023-06-24T15:27:17;31.60;1.00
6054;DHT22;3055;50.886;14.814;2023-06-24T15:29:44;32.10;1.00
6054;DHT22;3055;50.886;14.814;2023-06-24T15:32:13;32.30;1.00
6054;DHT22;3055;50.886;14.814;2023-06-24T15:34:40;33.10;1.00
6054;DHT22;3055;50.886;14.814;2023-06-24T15:37:07;33.50;1.00
6054;DHT22;3055;50.886;14.814;2023-06-24T15:39:34;33.00;1.00
6054;DHT22;3055;50.886;14.814;2023-06-24T15:42:01;33.00;1.00
6054;DHT22;3055;50.886;14.814;2023-06-24T15:44:28;33.00;1.00
6054;DHT22;3055;50.886;14.814;2023-06-24T15:46:56;32.70;1.00
6054;DHT22;3055;50.886;14.814;2023-06-24T15:49:24;32.50;1.00
6054;DHT22;3055;50.886;14.814;2023-06-24T15:51:51;32.00;1.00
6054;DHT22;3055;50.886;14.814;2023-06-24T15:54:18;32.20;1.00
6054;DHT22;3055;50.886;14.814;2023-06-24T15:56:46;32.10;1.00
6054;DHT22;3055;50.886;14.814;2023-06-24T15:59:13;32.40;1.00
6054;DHT22;3055;50.886;14.814;2023-06-24T16:01:40;32.10;1.00
6054;DHT22;3055;50.886;14.814;2023-06-24T16:04:08;32.10;1.00